sensor_id;sensor_type;location;lat;lon;timestamp;P1;durP1;ratioP1;P2;durP2;ratioP2
8594;SDS011;4335;48.860;9.198;2023-11-19T00:00:31;2.47;;;2.27;;
8594;SDS011;4335;48.860;9.198;2023-11-19T00:02:58;2.67;;;2.40;;
8594;SDS011;4335;48.860;9.198;2023-11-19T00:05:32;2.57;;;2.30;;
8594;SDS011;4335;48.860;9.198;2023-11-19T00:08:00;3.40;;;2.37;;
8594;SDS011;4335;48.860;9.198;2023-11-19T00:10:27;2.93;;;2.50;;
8594;SDS011;4335;48.860;9.198;2023-11-19T00:12:57;3.17;;;2.40;;
8594;SDS011;4335;48.860;9.198;2023-11-19T00:15:24;3.43;;;2.40;;
8594;SDS011;4335;48.860;9.198;2023-11-19T00:17:52;2.50;;;2.30;;
8594;SDS011;4335;48.860;9.198;2023-11-19T00:20:22;3.40;;;2.73;;
8594;SDS011;4335;48.860;9.198;2023-11-19T00:22:51;2.13;;;1.93;;
8594;SDS011;4335;48.860;9.198;2023-11-19T00:25:18;3.23;;;2.70;;
8594;SDS011;4335;48.860;9.198;2023-11-19T00:27:47;2.70;;;2.30;;
8594;SDS011;4335;48.860;9.198;2023-11-19T00:30:15;4.03;;;3.00;;
8594;SDS011;4335;48.860;9.198;2023-11-19T00:32:43;2.80;;;2.50;;
8594;SDS011;4335;48.860;9.198;2023-11-19T00:35:11;3.00;;;2.00;;
8594;SDS011;4335;48.860;9.198;2023-11-19T00:37:39;4.33;;;2.37;;
8594;SDS011;4335;48.860;9.198;2023-11-19T00:42:54;2.33;;;2.13;;
8594;SDS011;4335;48.860;9.198;2023-11-19T00:45:21;2.00;;;1.80;;
8594;SDS011;4335;48.860;9.198;2023-11-19T00:47:49;7.00;;;4.63;;
8594;SDS011;4335;48.860;9.198;2023-11-19T00:50:16;6.97;;;3.97;;
8594;SDS011;4335;48.860;9.198;2023-11-19T00:52:44;3.67;;;3.00;;
8594;SDS011;4335;48.860;9.198;2023-11-19T00:55:12;3.83;;;2.17;;
8594;SDS011;4335;48.860;9.198;2023-11-19T00:57:47;2.67;;;2.37;;
8594;SDS011;4335;48.860;9.198;2023-11-19T01:00:15;3.80;;;2.70;;
8594;SDS011;4335;48.860;9.198;2023-11-19T01:02:44;2.33;;;1.93;;
8594;SDS011;4335;48.860;9.198;2023-11-19T01:05:15;2.90;;;2.27;;
8594;SDS011;4335;48.860;9.198;2023-11-19T01:07:42;2.73;;;2.10;;
8594;SDS011;4335;48.860;9.198;2023-11-19T01:10:13;2.40;;;2.20;;
8594;SDS011;4335;48.860;9.198;2023-11-19T01:12:41;3.73;;;2.50;;
8594;SDS011;4335;48.860;9.198;2023-11-19T01:15:13;2.70;;;2.27;;
8594;SDS011;4335;48.860;9.198;2023-11-19T01:17:43;2.53;;;2.27;;
8594;SDS011;4335;48.860;9.198;2023-11-19T01:20:10;2.50;;;2.30;;
8594;SDS011;4335;48.860;9.198;2023-11-19T01:22:38;2.80;;;2.60;;
8594;SDS011;4335;48.860;9.198;2023-11-19T01:25:15;2.83;;;2.20;;
8594;SDS011;4335;48.860;9.198;2023-11-19T01:27:42;2.27;;;2.07;;
8594;SDS011;4335;48.860;9.198;2023-11-19T01:30:10;3.50;;;2.40;;
8594;SDS011;4335;48.860;9.198;2023-11-19T01:32:40;2.63;;;2.43;;
8594;SDS011;4335;48.860;9.198;2023-11-19T01:35:07;2.63;;;2.20;;
8594;SDS011;4335;48.860;9.198;2023-11-19T01:37:35;2.73;;;2.50;;
8594;SDS011;4335;48.860;9.198;2023-11-19T01:40:03;2.27;;;2.03;;
8594;SDS011;4335;48.860;9.198;2023-11-19T01:42:35;2.30;;;2.10;;
8594;SDS011;4335;48.860;9.198;2023-11-19T01:45:07;4.23;;;2.27;;
8594;SDS011;4335;48.860;9.198;2023-11-19T01:47:35;2.87;;;2.50;;
8594;SDS011;4335;48.860;9.198;2023-11-19T01:50:09;3.80;;;2.10;;
8594;SDS011;4335;48.860;9.198;2023-11-19T01:52:37;2.40;;;2.20;;
8594;SDS011;4335;48.860;9.198;2023-11-19T01:55:14;2.70;;;1.87;;
8594;SDS011;4335;48.860;9.198;2023-11-19T01:57:41;1.77;;;1.53;;
8594;SDS011;4335;48.860;9.198;2023-11-19T02:00:12;2.23;;;1.67;;
8594;SDS011;4335;48.860;9.198;2023-11-19T02:02:41;2.50;;;1.40;;
8594;SDS011;4335;48.860;9.198;2023-11-19T02:05:11;1.63;;;1.43;;
8594;SDS011;4335;48.860;9.198;2023-11-19T02:07:39;1.20;;;1.07;;
8594;SDS011;4335;48.860;9.198;2023-11-19T02:10:09;3.30;;;1.57;;
8594;SDS011;4335;48.860;9.198;2023-11-19T02:12:40;1.97;;;1.20;;
8594;SDS011;4335;48.860;9.198;2023-11-19T02:15:09;2.73;;;1.20;;
8594;SDS011;4335;48.860;9.198;2023-11-19T02:17:37;1.70;;;1.23;;
8594;SDS011;4335;48.860;9.198;2023-11-19T02:20:16;1.37;;;1.23;;
8594;SDS011;4335;48.860;9.198;2023-11-19T02:22:52;1.87;;;1.00;;
8594;SDS011;4335;48.860;9.198;2023-11-19T02:25:24;2.20;;;1.00;;
8594;SDS011;4335;48.860;9.198;2023-11-19T02:27:59;1.40;;;1.00;;
8594;SDS011;4335;48.860;9.198;2023-11-19T02:30:34;2.93;;;1.00;;
8594;SDS011;4335;48.860;9.198;2023-11-19T02:33:01;1.23;;;1.13;;
8594;SDS011;4335;48.860;9.198;2023-11-19T02:35:31;0.90;;;0.80;;
8594;SDS011;4335;48.860;9.198;2023-11-19T02:37:59;1.23;;;0.90;;
8594;SDS011;4335;48.860;9.198;2023-11-19T02:40:29;1.67;;;0.97;;
8594;SDS011;4335;48.860;9.198;2023-11-19T02:42:56;3.00;;;0.90;;
8594;SDS011;4335;48.860;9.198;2023-11-19T02:45:25;1.13;;;1.13;;
8594;SDS011;4335;48.860;9.198;2023-11-19T02:47:59;0.80;;;0.80;;
8594;SDS011;4335;48.860;9.198;2023-11-19T02:50:28;2.20;;;1.20;;
8594;SDS011;4335;48.860;9.198;2023-11-19T02:52:56;1.73;;;1.17;;
8594;SDS011;4335;48.860;9.198;2023-11-19T02:55:33;1.10;;;1.00;;
8594;SDS011;4335;48.860;9.198;2023-11-19T02:58:04;1.63;;;1.40;;
8594;SDS011;4335;48.860;9.198;2023-11-19T03:00:47;3.23;;;2.03;;
8594;SDS011;4335;48.860;9.198;2023-11-19T03:03:19;2.57;;;1.67;;
8594;SDS011;4335;48.860;9.198;2023-11-19T03:05:48;3.53;;;1.93;;
8594;SDS011;4335;48.860;9.198;2023-11-19T03:08:23;1.70;;;1.60;;
8594;SDS011;4335;48.860;9.198;2023-11-19T03:10:51;2.50;;;1.70;;
8594;SDS011;4335;48.860;9.198;2023-11-19T03:13:20;1.90;;;1.60;;
8594;SDS011;4335;48.860;9.198;2023-11-19T03:15:48;1.53;;;1.30;;
8594;SDS011;4335;48.860;9.198;2023-11-19T03:18:15;2.10;;;1.80;;
8594;SDS011;4335;48.860;9.198;2023-11-19T03:20:57;2.13;;;1.70;;
8594;SDS011;4335;48.860;9.198;2023-11-19T03:23:24;1.80;;;1.70;;
8594;SDS011;4335;48.860;9.198;2023-11-19T03:25:53;1.77;;;1.60;;
8594;SDS011;4335;48.860;9.198;2023-11-19T03:28:23;2.00;;;1.50;;
8594;SDS011;4335;48.860;9.198;2023-11-19T03:30:51;2.90;;;2.27;;
8594;SDS011;4335;48.860;9.198;2023-11-19T03:33:24;2.20;;;2.07;;
8594;SDS011;4335;48.860;9.198;2023-11-19T03:35:53;2.37;;;1.87;;
8594;SDS011;4335;48.860;9.198;2023-11-19T03:38:23;2.73;;;1.70;;
8594;SDS011;4335;48.860;9.198;2023-11-19T03:40:51;2.20;;;1.73;;
8594;SDS011;4335;48.860;9.198;2023-11-19T03:43:21;2.57;;;2.07;;
8594;SDS011;4335;48.860;9.198;2023-11-19T03:45:50;2.73;;;2.50;;
8594;SDS011;4335;48.860;9.198;2023-11-19T03:48:17;3.20;;;2.90;;
8594;SDS011;4335;48.860;9.198;2023-11-19T03:50:45;2.43;;;2.20;;
8594;SDS011;4335;48.860;9.198;2023-11-19T03:53:12;2.73;;;1.90;;
8594;SDS011;4335;48.860;9.198;2023-11-19T03:55:42;3.17;;;2.10;;
8594;SDS011;4335;48.860;9.198;2023-11-19T03:58:09;2.40;;;2.20;;
8594;SDS011;4335;48.860;9.198;2023-11-19T04:00:37;2.87;;;2.23;;
8594;SDS011;4335;48.860;9.198;2023-11-19T04:03:07;2.70;;;2.50;;
8594;SDS011;4335;48.860;9.198;2023-11-19T04:05:34;3.80;;;3.07;;
8594;SDS011;4335;48.860;9.198;2023-11-19T04:08:05;3.07;;;2.87;;
8594;SDS011;4335;48.860;9.198;2023-11-19T04:10:35;3.37;;;3.07;;
8594;SDS011;4335;48.860;9.198;2023-11-19T04:13:06;3.33;;;3.03;;
8594;SDS011;4335;48.860;9.198;2023-11-19T04:15:36;4.70;;;3.93;;
8594;SDS011;4335;48.860;9.198;2023-11-19T04:18:04;3.87;;;3.30;;
8594;SDS011;4335;48.860;9.198;2023-11-19T04:20:36;3.30;;;3.00;;
8594;SDS011;4335;48.860;9.198;2023-11-19T04:23:03;5.90;;;5.40;;
8594;SDS011;4335;48.860;9.198;2023-11-19T04:25:30;3.93;;;3.53;;
8594;SDS011;4335;48.860;9.198;2023-11-19T04:27:58;2.97;;;2.60;;
8594;SDS011;4335;48.860;9.198;2023-11-19T04:30:25;2.43;;;2.03;;
8594;SDS011;4335;48.860;9.198;2023-11-19T04:32:53;3.53;;;2.70;;
8594;SDS011;4335;48.860;9.198;2023-11-19T04:35:24;2.53;;;2.33;;
8594;SDS011;4335;48.860;9.198;2023-11-19T04:37:52;3.03;;;2.53;;
8594;SDS011;4335;48.860;9.198;2023-11-19T04:40:25;5.13;;;2.63;;
8594;SDS011;4335;48.860;9.198;2023-11-19T04:42:52;2.47;;;2.27;;
8594;SDS011;4335;48.860;9.198;2023-11-19T04:45:26;3.03;;;2.37;;
8594;SDS011;4335;48.860;9.198;2023-11-19T04:47:53;2.30;;;1.93;;
8594;SDS011;4335;48.860;9.198;2023-11-19T04:50:25;2.80;;;2.60;;
8594;SDS011;4335;48.860;9.198;2023-11-19T04:52:53;2.30;;;2.10;;
8594;SDS011;4335;48.860;9.198;2023-11-19T04:55:24;2.03;;;1.87;;
8594;SDS011;4335;48.860;9.198;2023-11-19T04:57:53;2.30;;;2.10;;
8594;SDS011;4335;48.860;9.198;2023-11-19T05:00:24;2.10;;;1.77;;
8594;SDS011;4335;48.860;9.198;2023-11-19T05:02:52;2.23;;;1.90;;
8594;SDS011;4335;48.860;9.198;2023-11-19T05:05:22;3.37;;;2.73;;
8594;SDS011;4335;48.860;9.198;2023-11-19T05:07:54;2.90;;;2.70;;
8594;SDS011;4335;48.860;9.198;2023-11-19T05:10:26;2.63;;;2.00;;
8594;SDS011;4335;48.860;9.198;2023-11-19T05:12:57;1.83;;;1.70;;
8594;SDS011;4335;48.860;9.198;2023-11-19T05:15:27;2.87;;;1.83;;
8594;SDS011;4335;48.860;9.198;2023-11-19T05:18:01;1.70;;;1.60;;
8594;SDS011;4335;48.860;9.198;2023-11-19T05:20:36;2.20;;;2.00;;
8594;SDS011;4335;48.860;9.198;2023-11-19T05:23:03;2.20;;;1.60;;
8594;SDS011;4335;48.860;9.198;2023-11-19T05:25:33;2.43;;;1.50;;
8594;SDS011;4335;48.860;9.198;2023-11-19T05:28:05;1.50;;;1.40;;
8594;SDS011;4335;48.860;9.198;2023-11-19T05:30:36;1.23;;;1.13;;
8594;SDS011;4335;48.860;9.198;2023-11-19T05:33:03;1.30;;;1.20;;
8594;SDS011;4335;48.860;9.198;2023-11-19T05:35:42;1.20;;;1.10;;
8594;SDS011;4335;48.860;9.198;2023-11-19T05:38:09;1.27;;;1.17;;
8594;SDS011;4335;48.860;9.198;2023-11-19T05:40:39;2.10;;;1.10;;
8594;SDS011;4335;48.860;9.198;2023-11-19T05:43:07;1.13;;;1.03;;
8594;SDS011;4335;48.860;9.198;2023-11-19T05:45:34;1.00;;;1.00;;
8594;SDS011;4335;48.860;9.198;2023-11-19T05:48:02;0.80;;;0.80;;
8594;SDS011;4335;48.860;9.198;2023-11-19T05:50:36;1.40;;;0.90;;
8594;SDS011;4335;48.860;9.198;2023-11-19T05:53:08;2.13;;;1.13;;
8594;SDS011;4335;48.860;9.198;2023-11-19T05:55:35;1.20;;;0.90;;
8594;SDS011;4335;48.860;9.198;2023-11-19T05:58:12;0.70;;;0.70;;
8594;SDS011;4335;48.860;9.198;2023-11-19T06:00:42;0.70;;;0.70;;
8594;SDS011;4335;48.860;9.198;2023-11-19T06:03:13;1.23;;;0.90;;
8594;SDS011;4335;48.860;9.198;2023-11-19T06:05:44;0.83;;;0.83;;
8594;SDS011;4335;48.860;9.198;2023-11-19T06:08:25;1.17;;;1.00;;
8594;SDS011;4335;48.860;9.198;2023-11-19T06:10:53;0.73;;;0.73;;
8594;SDS011;4335;48.860;9.198;2023-11-19T06:13:21;2.07;;;0.90;;
8594;SDS011;4335;48.860;9.198;2023-11-19T06:15:49;0.83;;;0.83;;
8594;SDS011;4335;48.860;9.198;2023-11-19T06:18:16;0.80;;;0.80;;
8594;SDS011;4335;48.860;9.198;2023-11-19T06:20:45;1.13;;;0.70;;
8594;SDS011;4335;48.860;9.198;2023-11-19T06:23:12;1.60;;;1.20;;
8594;SDS011;4335;48.860;9.198;2023-11-19T06:25:44;1.63;;;1.47;;
8594;SDS011;4335;48.860;9.198;2023-11-19T06:28:11;0.77;;;0.77;;
8594;SDS011;4335;48.860;9.198;2023-11-19T06:30:42;1.90;;;1.50;;
8594;SDS011;4335;48.860;9.198;2023-11-19T06:33:16;1.10;;;1.00;;
8594;SDS011;4335;48.860;9.198;2023-11-19T06:35:44;1.40;;;1.30;;
8594;SDS011;4335;48.860;9.198;2023-11-19T06:38:11;1.53;;;1.37;;
8594;SDS011;4335;48.860;9.198;2023-11-19T06:40:39;1.50;;;1.30;;
8594;SDS011;4335;48.860;9.198;2023-11-19T06:43:13;1.13;;;1.03;;
8594;SDS011;4335;48.860;9.198;2023-11-19T06:45:43;1.10;;;1.00;;
8594;SDS011;4335;48.860;9.198;2023-11-19T06:48:10;1.20;;;1.10;;
8594;SDS011;4335;48.860;9.198;2023-11-19T06:50:38;2.97;;;0.90;;
8594;SDS011;4335;48.860;9.198;2023-11-19T06:53:08;1.10;;;1.00;;
8594;SDS011;4335;48.860;9.198;2023-11-19T06:55:36;0.70;;;0.70;;
8594;SDS011;4335;48.860;9.198;2023-11-19T06:58:06;1.57;;;1.00;;
8594;SDS011;4335;48.860;9.198;2023-11-19T07:00:36;1.23;;;1.10;;
8594;SDS011;4335;48.860;9.198;2023-11-19T07:03:03;0.87;;;0.87;;
8594;SDS011;4335;48.860;9.198;2023-11-19T07:05:35;0.93;;;0.90;;
8594;SDS011;4335;48.860;9.198;2023-11-19T07:08:03;1.17;;;1.07;;
8594;SDS011;4335;48.860;9.198;2023-11-19T07:10:34;1.53;;;1.00;;
8594;SDS011;4335;48.860;9.198;2023-11-19T07:13:08;0.80;;;0.80;;
8594;SDS011;4335;48.860;9.198;2023-11-19T07:15:41;1.00;;;0.90;;
8594;SDS011;4335;48.860;9.198;2023-11-19T07:18:15;1.37;;;1.03;;
8594;SDS011;4335;48.860;9.198;2023-11-19T07:20:45;0.80;;;0.80;;
8594;SDS011;4335;48.860;9.198;2023-11-19T07:23:16;1.73;;;0.80;;
8594;SDS011;4335;48.860;9.198;2023-11-19T07:25:43;1.73;;;1.33;;
8594;SDS011;4335;48.860;9.198;2023-11-19T07:28:13;2.90;;;1.40;;
8594;SDS011;4335;48.860;9.198;2023-11-19T07:30:42;1.03;;;1.00;;
8594;SDS011;4335;48.860;9.198;2023-11-19T07:33:09;1.53;;;1.23;;
8594;SDS011;4335;48.860;9.198;2023-11-19T07:35:40;1.60;;;1.20;;
8594;SDS011;4335;48.860;9.198;2023-11-19T07:38:12;7.23;;;1.87;;
8594;SDS011;4335;48.860;9.198;2023-11-19T07:40:39;1.10;;;1.00;;
8594;SDS011;4335;48.860;9.198;2023-11-19T07:43:09;3.03;;;2.20;;
8594;SDS011;4335;48.860;9.198;2023-11-19T07:45:38;1.50;;;1.10;;
8594;SDS011;4335;48.860;9.198;2023-11-19T07:48:10;0.90;;;0.80;;
8594;SDS011;4335;48.860;9.198;2023-11-19T07:50:40;2.00;;;1.20;;
8594;SDS011;4335;48.860;9.198;2023-11-19T07:53:13;2.10;;;1.00;;
8594;SDS011;4335;48.860;9.198;2023-11-19T07:55:43;1.50;;;1.30;;
8594;SDS011;4335;48.860;9.198;2023-11-19T07:58:11;1.20;;;1.10;;
8594;SDS011;4335;48.860;9.198;2023-11-19T08:00:40;1.67;;;1.27;;
8594;SDS011;4335;48.860;9.198;2023-11-19T08:03:10;1.47;;;1.37;;
8594;SDS011;4335;48.860;9.198;2023-11-19T08:05:37;1.50;;;1.40;;
8594;SDS011;4335;48.860;9.198;2023-11-19T08:08:12;1.77;;;1.57;;
8594;SDS011;4335;48.860;9.198;2023-11-19T08:10:39;1.33;;;1.23;;
8594;SDS011;4335;48.860;9.198;2023-11-19T08:13:07;1.60;;;1.47;;
8594;SDS011;4335;48.860;9.198;2023-11-19T08:15:45;4.07;;;2.70;;
8594;SDS011;4335;48.860;9.198;2023-11-19T08:18:12;1.43;;;1.33;;
8594;SDS011;4335;48.860;9.198;2023-11-19T08:20:43;2.83;;;1.67;;
8594;SDS011;4335;48.860;9.198;2023-11-19T08:23:10;1.03;;;0.93;;
8594;SDS011;4335;48.860;9.198;2023-11-19T08:25:38;0.93;;;0.87;;
8594;SDS011;4335;48.860;9.198;2023-11-19T08:28:05;1.13;;;1.07;;
8594;SDS011;4335;48.860;9.198;2023-11-19T08:30:33;0.93;;;0.90;;
8594;SDS011;4335;48.860;9.198;2023-11-19T08:33:02;1.67;;;1.40;;
8594;SDS011;4335;48.860;9.198;2023-11-19T08:35:31;1.63;;;1.37;;
8594;SDS011;4335;48.860;9.198;2023-11-19T08:37:58;2.90;;;1.30;;
8594;SDS011;4335;48.860;9.198;2023-11-19T08:40:27;2.60;;;1.90;;
8594;SDS011;4335;48.860;9.198;2023-11-19T08:42:55;1.83;;;1.47;;
8594;SDS011;4335;48.860;9.198;2023-11-19T08:45:25;1.73;;;1.37;;
8594;SDS011;4335;48.860;9.198;2023-11-19T08:48:06;2.70;;;1.30;;
8594;SDS011;4335;48.860;9.198;2023-11-19T08:50:34;1.60;;;1.10;;
8594;SDS011;4335;48.860;9.198;2023-11-19T08:53:04;3.00;;;1.90;;
8594;SDS011;4335;48.860;9.198;2023-11-19T08:55:35;1.70;;;1.60;;
8594;SDS011;4335;48.860;9.198;2023-11-19T08:58:03;1.27;;;1.17;;
8594;SDS011;4335;48.860;9.198;2023-11-19T09:00:42;2.50;;;1.50;;
8594;SDS011;4335;48.860;9.198;2023-11-19T09:03:17;3.00;;;1.60;;
8594;SDS011;4335;48.860;9.198;2023-11-19T09:05:45;1.60;;;1.50;;
8594;SDS011;4335;48.860;9.198;2023-11-19T09:08:16;2.20;;;1.20;;
8594;SDS011;4335;48.860;9.198;2023-11-19T09:10:46;1.50;;;1.17;;
8594;SDS011;4335;48.860;9.198;2023-11-19T09:13:14;1.80;;;1.30;;
8594;SDS011;4335;48.860;9.198;2023-11-19T09:15:41;3.57;;;1.10;;
8594;SDS011;4335;48.860;9.198;2023-11-19T09:18:16;1.90;;;1.40;;
8594;SDS011;4335;48.860;9.198;2023-11-19T09:20:47;2.90;;;1.27;;
8594;SDS011;4335;48.860;9.198;2023-11-19T09:23:21;3.57;;;2.40;;
8594;SDS011;4335;48.860;9.198;2023-11-19T09:25:53;2.07;;;1.80;;
8594;SDS011;4335;48.860;9.198;2023-11-19T09:28:29;2.63;;;1.90;;
8594;SDS011;4335;48.860;9.198;2023-11-19T09:30:59;1.77;;;1.50;;
8594;SDS011;4335;48.860;9.198;2023-11-19T09:33:34;1.77;;;1.30;;
8594;SDS011;4335;48.860;9.198;2023-11-19T09:36:01;2.63;;;2.20;;
8594;SDS011;4335;48.860;9.198;2023-11-19T09:38:29;2.73;;;1.60;;
8594;SDS011;4335;48.860;9.198;2023-11-19T09:41:00;2.60;;;1.87;;
8594;SDS011;4335;48.860;9.198;2023-11-19T09:43:36;1.83;;;1.13;;
8594;SDS011;4335;48.860;9.198;2023-11-19T09:46:12;1.33;;;1.20;;
8594;SDS011;4335;48.860;9.198;2023-11-19T09:48:43;3.43;;;2.50;;
8594;SDS011;4335;48.860;9.198;2023-11-19T09:51:13;2.57;;;1.53;;
8594;SDS011;4335;48.860;9.198;2023-11-19T09:53:40;2.10;;;1.37;;
8594;SDS011;4335;48.860;9.198;2023-11-19T09:56:15;1.93;;;1.10;;
8594;SDS011;4335;48.860;9.198;2023-11-19T09:58:43;1.40;;;1.23;;
8594;SDS011;4335;48.860;9.198;2023-11-19T10:01:10;2.40;;;1.20;;
8594;SDS011;4335;48.860;9.198;2023-11-19T10:03:38;2.10;;;1.50;;
8594;SDS011;4335;48.860;9.198;2023-11-19T10:06:13;1.10;;;1.00;;
8594;SDS011;4335;48.860;9.198;2023-11-19T10:08:44;1.53;;;1.20;;
8594;SDS011;4335;48.860;9.198;2023-11-19T10:11:12;2.43;;;1.50;;
8594;SDS011;4335;48.860;9.198;2023-11-19T10:13:43;2.23;;;1.13;;
8594;SDS011;4335;48.860;9.198;2023-11-19T10:16:13;3.17;;;1.50;;
8594;SDS011;4335;48.860;9.198;2023-11-19T10:18:47;2.57;;;1.60;;
8594;SDS011;4335;48.860;9.198;2023-11-19T10:21:18;2.00;;;1.70;;
8594;SDS011;4335;48.860;9.198;2023-11-19T10:23:57;3.93;;;2.07;;
8594;SDS011;4335;48.860;9.198;2023-11-19T10:26:26;2.43;;;1.83;;
8594;SDS011;4335;48.860;9.198;2023-11-19T10:28:59;2.03;;;1.60;;
8594;SDS011;4335;48.860;9.198;2023-11-19T10:31:27;2.37;;;1.30;;
8594;SDS011;4335;48.860;9.198;2023-11-19T10:33:54;3.77;;;2.27;;
8594;SDS011;4335;48.860;9.198;2023-11-19T10:36:38;2.70;;;2.17;;
8594;SDS011;4335;48.860;9.198;2023-11-19T10:39:10;1.87;;;1.50;;
8594;SDS011;4335;48.860;9.198;2023-11-19T10:41:41;2.13;;;1.10;;
8594;SDS011;4335;48.860;9.198;2023-11-19T10:44:08;2.00;;;1.23;;
8594;SDS011;4335;48.860;9.198;2023-11-19T10:46:39;3.20;;;1.60;;
8594;SDS011;4335;48.860;9.198;2023-11-19T10:49:10;1.97;;;1.20;;
8594;SDS011;4335;48.860;9.198;2023-11-19T10:51:42;1.33;;;1.23;;
8594;SDS011;4335;48.860;9.198;2023-11-19T10:54:12;1.20;;;1.10;;
8594;SDS011;4335;48.860;9.198;2023-11-19T10:56:48;1.53;;;1.30;;
8594;SDS011;4335;48.860;9.198;2023-11-19T10:59:24;1.63;;;1.40;;
8594;SDS011;4335;48.860;9.198;2023-11-19T11:01:54;2.03;;;1.23;;
8594;SDS011;4335;48.860;9.198;2023-11-19T11:04:23;2.93;;;1.60;;
8594;SDS011;4335;48.860;9.198;2023-11-19T11:06:57;2.20;;;1.30;;
8594;SDS011;4335;48.860;9.198;2023-11-19T11:09:27;4.90;;;1.40;;
8594;SDS011;4335;48.860;9.198;2023-11-19T11:11:55;1.87;;;1.30;;
8594;SDS011;4335;48.860;9.198;2023-11-19T11:14:25;2.17;;;1.20;;
8594;SDS011;4335;48.860;9.198;2023-11-19T11:16:53;2.47;;;1.30;;
8594;SDS011;4335;48.860;9.198;2023-11-19T11:19:23;1.63;;;1.50;;
8594;SDS011;4335;48.860;9.198;2023-11-19T11:21:53;1.70;;;1.20;;
8594;SDS011;4335;48.860;9.198;2023-11-19T11:27:32;4.97;;;3.40;;
8594;SDS011;4335;48.860;9.198;2023-11-19T11:30:24;1.93;;;1.73;;
8594;SDS011;4335;48.860;9.198;2023-11-19T11:33:14;2.03;;;1.70;;
8594;SDS011;4335;48.860;9.198;2023-11-19T11:35:54;3.47;;;2.00;;
8594;SDS011;4335;48.860;9.198;2023-11-19T11:38:28;4.23;;;3.10;;
8594;SDS011;4335;48.860;9.198;2023-11-19T11:41:16;4.83;;;1.80;;
8594;SDS011;4335;48.860;9.198;2023-11-19T11:43:48;2.23;;;1.00;;
8594;SDS011;4335;48.860;9.198;2023-11-19T11:49:30;2.07;;;1.17;;
8594;SDS011;4335;48.860;9.198;2023-11-19T11:52:00;3.27;;;1.77;;
8594;SDS011;4335;48.860;9.198;2023-11-19T11:54:29;2.47;;;1.27;;
8594;SDS011;4335;48.860;9.198;2023-11-19T11:57:02;2.17;;;1.40;;
8594;SDS011;4335;48.860;9.198;2023-11-19T11:59:43;2.10;;;1.30;;
8594;SDS011;4335;48.860;9.198;2023-11-19T12:02:14;2.17;;;1.20;;
8594;SDS011;4335;48.860;9.198;2023-11-19T12:04:49;4.13;;;1.23;;
8594;SDS011;4335;48.860;9.198;2023-11-19T12:07:18;2.17;;;1.20;;
8594;SDS011;4335;48.860;9.198;2023-11-19T12:09:47;4.30;;;1.60;;
8594;SDS011;4335;48.860;9.198;2023-11-19T12:12:27;2.53;;;1.50;;
8594;SDS011;4335;48.860;9.198;2023-11-19T12:15:05;2.47;;;1.43;;
8594;SDS011;4335;48.860;9.198;2023-11-19T12:17:41;1.73;;;1.40;;
8594;SDS011;4335;48.860;9.198;2023-11-19T12:20:17;2.57;;;0.97;;
8594;SDS011;4335;48.860;9.198;2023-11-19T12:22:46;1.80;;;1.70;;
8594;SDS011;4335;48.860;9.198;2023-11-19T12:25:14;2.10;;;1.63;;
8594;SDS011;4335;48.860;9.198;2023-11-19T12:28:01;4.67;;;1.70;;
8594;SDS011;4335;48.860;9.198;2023-11-19T12:30:29;2.10;;;1.23;;
8594;SDS011;4335;48.860;9.198;2023-11-19T12:32:57;1.13;;;0.93;;
8594;SDS011;4335;48.860;9.198;2023-11-19T12:35:28;1.90;;;1.10;;
8594;SDS011;4335;48.860;9.198;2023-11-19T12:38:04;1.90;;;1.30;;
8594;SDS011;4335;48.860;9.198;2023-11-19T12:40:35;1.83;;;1.30;;
8594;SDS011;4335;48.860;9.198;2023-11-19T12:43:06;1.30;;;1.00;;
8594;SDS011;4335;48.860;9.198;2023-11-19T12:45:36;2.47;;;1.60;;
8594;SDS011;4335;48.860;9.198;2023-11-19T12:48:07;2.60;;;1.10;;
8594;SDS011;4335;48.860;9.198;2023-11-19T12:50:51;2.07;;;1.33;;
8594;SDS011;4335;48.860;9.198;2023-11-19T12:53:22;3.33;;;1.23;;
8594;SDS011;4335;48.860;9.198;2023-11-19T12:55:51;2.80;;;1.70;;
8594;SDS011;4335;48.860;9.198;2023-11-19T12:58:31;1.43;;;1.23;;
8594;SDS011;4335;48.860;9.198;2023-11-19T13:01:01;3.07;;;1.60;;
8594;SDS011;4335;48.860;9.198;2023-11-19T13:03:30;2.27;;;1.40;;
8594;SDS011;4335;48.860;9.198;2023-11-19T13:06:01;1.87;;;1.37;;
8594;SDS011;4335;48.860;9.198;2023-11-19T13:08:37;4.10;;;1.20;;
8594;SDS011;4335;48.860;9.198;2023-11-19T13:11:05;2.30;;;1.40;;
8594;SDS011;4335;48.860;9.198;2023-11-19T13:16:24;2.43;;;1.10;;
8594;SDS011;4335;48.860;9.198;2023-11-19T13:18:55;1.80;;;1.20;;
8594;SDS011;4335;48.860;9.198;2023-11-19T13:21:24;1.27;;;1.10;;
8594;SDS011;4335;48.860;9.198;2023-11-19T13:23:58;2.43;;;1.30;;
8594;SDS011;4335;48.860;9.198;2023-11-19T13:26:25;1.50;;;1.40;;
8594;SDS011;4335;48.860;9.198;2023-11-19T13:28:53;2.23;;;1.40;;
8594;SDS011;4335;48.860;9.198;2023-11-19T13:31:21;3.03;;;1.93;;
8594;SDS011;4335;48.860;9.198;2023-11-19T13:33:49;4.50;;;1.40;;
8594;SDS011;4335;48.860;9.198;2023-11-19T13:36:16;1.53;;;1.43;;
8594;SDS011;4335;48.860;9.198;2023-11-19T13:38:49;2.10;;;1.10;;
8594;SDS011;4335;48.860;9.198;2023-11-19T13:41:16;3.10;;;1.60;;
8594;SDS011;4335;48.860;9.198;2023-11-19T13:43:44;2.57;;;1.30;;
8594;SDS011;4335;48.860;9.198;2023-11-19T13:46:11;2.87;;;1.27;;
8594;SDS011;4335;48.860;9.198;2023-11-19T13:48:40;1.83;;;1.50;;
8594;SDS011;4335;48.860;9.198;2023-11-19T13:51:07;3.87;;;1.70;;
8594;SDS011;4335;48.860;9.198;2023-11-19T13:53:36;3.83;;;1.57;;
8594;SDS011;4335;48.860;9.198;2023-11-19T13:56:04;1.63;;;1.20;;
8594;SDS011;4335;48.860;9.198;2023-11-19T13:58:32;2.17;;;1.50;;
8594;SDS011;4335;48.860;9.198;2023-11-19T14:01:00;1.87;;;1.30;;
8594;SDS011;4335;48.860;9.198;2023-11-19T14:03:27;3.37;;;2.00;;
8594;SDS011;4335;48.860;9.198;2023-11-19T14:05:59;2.30;;;1.37;;
8594;SDS011;4335;48.860;9.198;2023-11-19T14:08:29;2.80;;;1.57;;
8594;SDS011;4335;48.860;9.198;2023-11-19T14:10:56;2.17;;;1.30;;
8594;SDS011;4335;48.860;9.198;2023-11-19T14:13:27;2.77;;;1.60;;
8594;SDS011;4335;48.860;9.198;2023-11-19T14:15:57;1.60;;;1.50;;
8594;SDS011;4335;48.860;9.198;2023-11-19T14:18:25;1.80;;;1.30;;
8594;SDS011;4335;48.860;9.198;2023-11-19T14:20:53;3.00;;;1.30;;
8594;SDS011;4335;48.860;9.198;2023-11-19T14:23:24;2.30;;;1.53;;
8594;SDS011;4335;48.860;9.198;2023-11-19T14:25:52;4.77;;;1.43;;
8594;SDS011;4335;48.860;9.198;2023-11-19T14:28:23;3.23;;;1.30;;
8594;SDS011;4335;48.860;9.198;2023-11-19T14:30:53;2.47;;;1.40;;
8594;SDS011;4335;48.860;9.198;2023-11-19T14:33:24;1.90;;;1.23;;
8594;SDS011;4335;48.860;9.198;2023-11-19T14:35:51;1.80;;;1.13;;
8594;SDS011;4335;48.860;9.198;2023-11-19T14:38:19;3.30;;;1.50;;
8594;SDS011;4335;48.860;9.198;2023-11-19T14:40:47;1.93;;;1.27;;
8594;SDS011;4335;48.860;9.198;2023-11-19T14:43:15;4.67;;;1.40;;
8594;SDS011;4335;48.860;9.198;2023-11-19T14:45:42;2.83;;;1.30;;
8594;SDS011;4335;48.860;9.198;2023-11-19T14:48:15;1.07;;;1.00;;
8594;SDS011;4335;48.860;9.198;2023-11-19T14:50:48;2.23;;;1.40;;
8594;SDS011;4335;48.860;9.198;2023-11-19T14:53:20;2.10;;;1.40;;
8594;SDS011;4335;48.860;9.198;2023-11-19T14:55:49;4.83;;;2.47;;
8594;SDS011;4335;48.860;9.198;2023-11-19T14:58:19;2.27;;;1.73;;
8594;SDS011;4335;48.860;9.198;2023-11-19T15:00:54;3.17;;;1.47;;
8594;SDS011;4335;48.860;9.198;2023-11-19T15:03:24;3.03;;;1.60;;
8594;SDS011;4335;48.860;9.198;2023-11-19T15:05:52;2.57;;;1.83;;
8594;SDS011;4335;48.860;9.198;2023-11-19T15:08:19;2.40;;;1.80;;
8594;SDS011;4335;48.860;9.198;2023-11-19T15:10:51;2.90;;;2.10;;
8594;SDS011;4335;48.860;9.198;2023-11-19T15:13:21;2.77;;;2.00;;
8594;SDS011;4335;48.860;9.198;2023-11-19T15:15:48;3.57;;;1.90;;
8594;SDS011;4335;48.860;9.198;2023-11-19T15:18:20;2.43;;;1.70;;
8594;SDS011;4335;48.860;9.198;2023-11-19T15:20:48;3.77;;;1.87;;
8594;SDS011;4335;48.860;9.198;2023-11-19T15:23:15;4.03;;;1.60;;
8594;SDS011;4335;48.860;9.198;2023-11-19T15:25:43;2.73;;;1.33;;
8594;SDS011;4335;48.860;9.198;2023-11-19T15:28:15;2.30;;;1.40;;
8594;SDS011;4335;48.860;9.198;2023-11-19T15:30:42;3.00;;;1.40;;
8594;SDS011;4335;48.860;9.198;2023-11-19T15:33:09;3.50;;;1.60;;
8594;SDS011;4335;48.860;9.198;2023-11-19T15:35:46;2.73;;;2.00;;
8594;SDS011;4335;48.860;9.198;2023-11-19T15:38:14;2.97;;;1.50;;
8594;SDS011;4335;48.860;9.198;2023-11-19T15:40:44;3.33;;;1.73;;
8594;SDS011;4335;48.860;9.198;2023-11-19T15:43:12;2.07;;;1.50;;
8594;SDS011;4335;48.860;9.198;2023-11-19T15:45:41;3.63;;;2.50;;